Time;durP1;ratioP1;P1;durP2;ratioP2;P2;SDS_P1;SDS_P2;PMS_P1;PMS_P2;Temp;Humidity;BMP_temperature;BMP_pressure;BME280_temperature;BME280_humidity;BME280_pressure;Samples;Min_cycle;Max_cycle;Signal;HPM_P1;HPM_P2
2022/08/16 00:02:14;;;;;;;10.40;9.38;;;;;;;17.45;73.15;95955.44;5035102;28;20380;-57
2022/08/16 00:04:41;;;;;;;11.23;9.55;;;;;;;17.47;73.78;95945.59;5034942;28;20059;-63
2022/08/16 00:07:10;;;;;;;10.00;8.50;;;;;;;17.44;74.17;95959.06;5034959;28;20073;-65
2022/08/16 00:09:37;;;;;;;12.55;9.07;;;;;;;17.40;73.94;95947.03;5034964;28;20068;-65
2022/08/16 00:12:05;;;;;;;10.00;8.95;;;;;;;17.37;74.07;95955.19;5034921;28;20046;-67
2022/08/16 00:14:33;;;;;;;10.95;9.40;;;;;;;17.35;74.56;95952.66;5034713;28;20088;-67
2022/08/16 00:17:01;;;;;;;10.77;8.32;;;;;;;17.28;74.78;95939.03;5034943;28;20049;-62
2022/08/16 00:19:31;;;;;;;12.23;9.10;;;;;;;17.27;74.40;95942.66;5034755;28;20510;-65
2022/08/16 00:21:59;;;;;;;11.43;8.47;;;;;;;17.29;74.67;95945.19;5034833;28;20530;-63
2022/08/16 00:24:29;;;;;;;10.57;9.48;;;;;;;17.24;75.03;95948.16;5034594;28;20283;-64
2022/08/16 00:26:56;;;;;;;13.18;8.48;;;;;;;17.24;75.12;95939.38;5034470;28;20046;-62
2022/08/16 00:29:23;;;;;;;12.68;9.18;;;;;;;17.20;74.71;95936.16;5033762;28;20570;-65
2022/08/16 00:31:52;;;;;;;14.35;9.18;;;;;;;17.17;74.40;95931.94;5034657;28;20092;-63
2022/08/16 00:34:20;;;;;;;10.30;9.32;;;;;;;17.18;74.86;95932.75;5034470;28;20084;-69
2022/08/16 00:36:47;;;;;;;9.77;8.75;;;;;;;17.21;74.44;95940.47;5034639;28;20403;-61
2022/08/16 00:39:16;;;;;;;10.48;8.40;;;;;;;17.18;74.11;95933.63;5034333;28;20089;-67
2022/08/16 00:41:47;;;;;;;11.63;8.90;;;;;;;17.17;74.21;95939.88;5034246;28;20115;-67
2022/08/16 00:44:16;;;;;;;10.05;9.02;;;;;;;17.18;74.69;95953.91;5034290;28;20049;-63
2022/08/16 00:46:50;;;;;;;9.05;8.15;;;;;;;17.14;75.17;95955.94;5034275;28;20053;-67
2022/08/16 00:49:18;;;;;;;9.80;8.32;;;;;;;17.16;75.05;95959.28;5034156;28;20077;-71
2022/08/16 00:51:46;;;;;;;10.55;8.90;;;;;;;17.05;76.30;95957.44;5034207;28;20053;-63
2022/08/16 00:54:14;;;;;;;9.75;8.75;;;;;;;17.09;76.15;95963.34;5034066;28;20223;-61
2022/08/16 00:56:45;;;;;;;10.30;8.88;;;;;;;17.11;76.14;95964.09;5034106;28;20069;-64
2022/08/16 00:59:15;;;;;;;13.00;8.80;;;;;;;17.11;75.76;95960.59;5034213;28;20072;-64
2022/08/16 01:01:43;;;;;;;12.27;9.02;;;;;;;17.10;75.21;95958.91;5034142;28;20411;-71
2022/08/16 01:04:11;;;;;;;11.13;8.57;;;;;;;17.09;75.90;95951.94;5033947;28;20050;-70
2022/08/16 01:06:38;;;;;;;9.90;8.15;;;;;;;17.08;75.49;95953.75;5033939;28;20053;-61
2022/08/16 01:09:07;;;;;;;9.15;8.23;;;;;;;17.10;75.16;95956.28;5033870;28;20050;-67
2022/08/16 01:11:37;;;;;;;15.98;8.43;;;;;;;17.06;76.06;95958.25;5033771;28;20052;-67
2022/08/16 01:14:11;;;;;;;8.65;7.82;;;;;;;17.05;75.36;95953.94;5033868;28;20091;-72
2022/08/16 01:16:40;;;;;;;9.65;8.55;;;;;;;17.05;75.40;95964.50;5033876;28;20115;-67
2022/08/16 01:19:16;;;;;;;8.55;7.75;;;;;;;17.10;75.41;95977.41;5033657;28;20056;-63
2022/08/16 01:21:58;;;;;;;9.38;8.43;;;;;;;17.06;75.23;95971.47;5033574;28;20092;-69
2022/08/16 01:24:29;;;;;;;11.90;8.90;;;;;;;17.04;75.04;95973.41;5033585;28;20077;-69
2022/08/16 01:27:02;;;;;;;10.75;8.73;;;;;;;16.94;75.06;95973.22;5033519;28;20057;-68
2022/08/16 01:29:35;;;;;;;13.82;9.52;;;;;;;16.90;75.78;95964.69;5033532;28;20067;-66
2022/08/16 01:32:02;;;;;;;9.93;8.93;;;;;;;16.89;75.82;95965.63;5033349;28;20049;-70
2022/08/16 01:34:30;;;;;;;9.27;8.38;;;;;;;16.86;76.12;95962.38;5033421;28;20416;-63
2022/08/16 01:36:59;;;;;;;10.98;9.93;;;;;;;16.83;76.59;95960.81;5033347;28;20049;-65
2022/08/16 01:39:28;;;;;;;10.30;9.10;;;;;;;16.80;76.35;95959.22;5033181;28;20108;-69
2022/08/16 01:41:56;;;;;;;11.90;8.80;;;;;;;16.80;76.63;95953.94;5033306;28;20137;-58
2022/08/16 01:44:23;;;;;;;13.27;9.35;;;;;;;16.82;76.51;95951.19;5033347;28;20145;-63
2022/08/16 01:46:52;;;;;;;14.98;9.75;;;;;;;16.85;76.19;95944.81;5033247;28;20053;-66
2022/08/16 01:49:23;;;;;;;13.38;9.70;;;;;;;16.86;76.21;95943.88;5033256;28;20060;-62
2022/08/16 01:51:55;;;;;;;10.63;8.70;;;;;;;16.85;75.94;95950.97;5033238;28;20076;-62
2022/08/16 01:54:22;;;;;;;10.25;9.23;;;;;;;16.71;76.40;95924.72;5033289;28;20554;-67
2022/08/16 01:56:51;;;;;;;12.18;10.65;;;;;;;16.77;77.26;95951.50;5033202;28;20053;-60
2022/08/16 01:59:20;;;;;;;14.20;9.98;;;;;;;16.79;76.88;95961.97;5033282;28;20049;-70
2022/08/16 02:01:49;;;;;;;13.88;10.77;;;;;;;16.76;78.15;95957.75;5033305;28;20049;-69
2022/08/16 02:04:17;;;;;;;12.60;11.20;;;;;;;16.83;78.12;95966.09;5033160;28;20152;-65
2022/08/16 02:06:44;;;;;;;17.90;10.93;;;;;;;16.86;77.48;95965.03;5032871;28;20045;-69
2022/08/16 02:09:13;;;;;;;11.88;10.18;;;;;;;16.88;77.39;95969.22;5032893;28;20088;-66
2022/08/16 02:11:45;;;;;;;10.63;9.18;;;;;;;16.90;76.32;95969.97;5033170;28;20092;-68
2022/08/16 02:14:13;;;;;;;13.23;10.20;;;;;;;16.84;76.42;95970.41;5032717;28;20057;-69
2022/08/16 02:16:43;;;;;;;15.05;10.00;;;;;;;16.86;75.96;95967.66;5032904;28;20050;-67
2022/08/16 02:19:10;;;;;;;11.63;9.80;;;;;;;16.82;76.08;95963.56;5032985;28;20111;-64
2022/08/16 02:21:38;;;;;;;11.30;9.38;;;;;;;16.76;76.78;95963.03;5032985;28;20493;-68
2022/08/16 02:24:06;;;;;;;11.75;10.38;;;;;;;16.77;76.16;95961.25;5032991;28;20470;-65
2022/08/16 02:26:33;;;;;;;13.18;10.60;;;;;;;16.72;76.91;95958.94;5032890;28;20454;-60
2022/08/16 02:29:00;;;;;;;14.35;10.52;;;;;;;16.70;76.77;95963.47;5032918;28;20054;-70
2022/08/16 02:31:29;;;;;;;10.25;9.25;;;;;;;16.67;76.47;95963.69;5032840;28;20049;-69
2022/08/16 02:33:56;;;;;;;12.57;11.18;;;;;;;16.66;78.36;95965.50;5032788;28;20072;-62
2022/08/16 02:36:24;;;;;;;12.88;11.27;;;;;;;16.59;79.01;95982.75;5032726;28;20095;-64
2022/08/16 02:38:51;;;;;;;12.48;11.15;;;;;;;16.50;78.96;95981.56;5032789;28;20049;-70
2022/08/16 02:41:18;;;;;;;13.05;11.65;;;;;;;16.48;78.97;95982.66;5032672;28;20055;-68
2022/08/16 02:43:46;;;;;;;15.98;10.95;;;;;;;16.48;79.03;95990.56;5032702;28;20438;-65
2022/08/16 02:46:13;;;;;;;13.50;11.15;;;;;;;16.49;78.77;95985.19;5032503;28;20056;-64
2022/08/16 02:48:42;;;;;;;14.25;10.90;;;;;;;16.53;78.65;95988.47;5032734;28;20056;-65
2022/08/16 02:51:10;;;;;;;12.45;10.77;;;;;;;16.53;78.13;95991.91;5033409;28;20045;-64
2022/08/16 02:53:41;;;;;;;11.75;10.55;;;;;;;16.46;78.75;95979.28;5036411;28;20049;-59
2022/08/16 02:56:11;;;;;;;11.90;10.75;;;;;;;16.46;78.49;95980.13;5036463;28;20080;-60
2022/08/16 02:58:38;;;;;;;13.97;11.07;;;;;;;16.45;78.46;95981.06;5036359;28;20049;-61
2022/08/16 03:01:06;;;;;;;11.65;10.05;;;;;;;16.42;78.07;95983.94;5036358;28;20148;-68
2022/08/16 03:03:33;;;;;;;12.48;11.30;;;;;;;16.40;78.18;95978.75;5036315;28;20399;-67
2022/08/16 03:06:02;;;;;;;12.02;10.82;;;;;;;16.41;79.15;95969.06;5035985;28;20049;-64
2022/08/16 03:08:29;;;;;;;12.85;11.40;;;;;;;16.44;79.53;95978.53;5036242;28;20052;-68
2022/08/16 03:10:57;;;;;;;16.65;10.93;;;;;;;16.44;79.14;95971.47;5036108;28;20054;-61
2022/08/16 03:13:24;;;;;;;12.32;11.13;;;;;;;16.45;78.68;95970.53;5036091;28;20132;-67
2022/08/16 03:15:51;;;;;;;14.35;10.23;;;;;;;16.49;78.42;95971.13;5035735;28;20609;-67
2022/08/16 03:18:19;;;;;;;14.98;11.93;;;;;;;16.44;79.11;95974.13;5035918;28;20057;-69
2022/08/16 03:20:46;;;;;;;16.48;12.27;;;;;;;16.40;79.34;95981.41;5035907;28;20053;-63
2022/08/16 03:23:15;;;;;;;11.40;10.20;;;;;;;16.42;79.74;95983.94;5035856;28;20045;-65
2022/08/16 03:25:43;;;;;;;11.68;10.48;;;;;;;16.47;78.34;95992.38;5035750;28;20076;-65
2022/08/16 03:28:11;;;;;;;12.18;10.93;;;;;;;16.51;78.17;95995.63;5035631;28;20132;-67
2022/08/16 03:30:38;;;;;;;12.35;11.13;;;;;;;16.52;78.13;95994.66;5035723;28;20048;-71
2022/08/16 03:33:06;;;;;;;14.02;10.95;;;;;;;16.54;77.81;96000.69;5035709;28;20045;-60
2022/08/16 03:35:35;;;;;;;11.35;10.25;;;;;;;16.60;77.30;96002.06;5035585;28;20046;-68
2022/08/16 03:38:06;;;;;;;13.07;10.55;;;;;;;16.59;77.28;96000.38;5035503;28;20537;-70
2022/08/16 03:40:37;;;;;;;14.82;10.70;;;;;;;16.59;76.87;96000.38;5035563;28;20083;-63
2022/08/16 03:43:08;;;;;;;13.18;10.52;;;;;;;16.60;76.89;96010.81;5035533;28;20410;-69
2022/08/16 03:45:36;;;;;;;11.88;10.23;;;;;;;16.54;77.28;96009.47;5035374;28;20053;-64
2022/08/16 03:48:04;;;;;;;11.20;10.10;;;;;;;16.53;77.45;96014.84;5035382;28;20045;-67
2022/08/16 03:50:31;;;;;;;12.63;10.15;;;;;;;16.56;77.38;96014.66;5035429;28;20056;-60
2022/08/16 03:52:59;;;;;;;12.52;10.98;;;;;;;16.62;77.46;96019.47;5035369;28;20049;-69
2022/08/16 03:55:26;;;;;;;11.65;9.85;;;;;;;16.67;77.38;96014.72;5035232;28;20042;-70
2022/08/16 03:57:55;;;;;;;10.27;9.27;;;;;;;16.70;77.23;96016.28;5035302;28;20495;-67
2022/08/16 04:00:25;;;;;;;11.23;10.07;;;;;;;16.72;76.83;96019.66;5035220;28;20053;-71
2022/08/16 04:02:54;;;;;;;11.10;10.00;;;;;;;16.84;76.85;96015.31;5034968;28;20045;-67
2022/08/16 04:05:21;;;;;;;13.20;9.75;;;;;;;17.21;76.05;96014.44;5035105;28;20047;-65
2022/08/16 04:07:49;;;;;;;11.07;9.23;;;;;;;17.61;74.28;96012.47;5034869;28;20556;-67
2022/08/16 04:10:17;;;;;;;11.13;9.00;;;;;;;17.96;72.73;96018.66;5035103;28;20103;-69
2022/08/16 04:12:46;;;;;;;9.50;8.18;;;;;;;18.26;72.56;96017.31;5035013;28;20096;-65
2022/08/16 04:15:16;;;;;;;11.93;9.20;;;;;;;18.64;70.77;96016.13;5034808;28;20111;-65
2022/08/16 04:17:44;;;;;;;9.20;7.97;;;;;;;18.94;70.00;96011.97;5034863;28;20049;-64
2022/08/16 04:20:14;;;;;;;8.40;7.60;;;;;;;19.27;68.39;96013.84;5034801;28;20050;-69
2022/08/16 04:22:43;;;;;;;14.68;8.70;;;;;;;19.56;67.34;96011.44;5034823;28;20428;-70
2022/08/16 04:25:12;;;;;;;9.43;8.52;;;;;;;19.92;66.59;96018.25;5034676;28;20050;-68
2022/08/16 04:27:39;;;;;;;8.93;8.02;;;;;;;20.26;65.64;96018.06;5034625;28;20430;-69
2022/08/16 04:30:10;;;;;;;11.05;8.30;;;;;;;20.62;63.91;96017.66;5034604;28;20045;-67
2022/08/16 04:32:39;;;;;;;11.60;7.53;;;;;;;21.00;63.09;96017.94;5034658;28;20137;-69
2022/08/16 04:35:09;;;;;;;8.75;7.60;;;;;;;21.38;62.83;96004.00;5034533;28;20133;-68
2022/08/16 04:37:37;;;;;;;8.40;7.45;;;;;;;21.74;61.49;96004.28;5034475;28;20045;-64
2022/08/16 04:40:09;;;;;;;8.23;7.43;;;;;;;22.10;61.08;96014.34;5034435;28;20045;-61
2022/08/16 04:42:39;;;;;;;10.73;7.05;;;;;;;22.47;59.68;96018.88;5034356;28;20498;-67
2022/08/16 04:45:09;;;;;;;8.13;7.30;;;;;;;22.83;58.48;96014.66;5034392;28;20442;-67
2022/08/16 04:47:36;;;;;;;10.50;6.43;;;;;;;23.14;57.64;96011.69;5034295;28;20049;-67
2022/08/16 04:50:08;;;;;;;8.63;7.78;;;;;;;23.40;57.23;96021.66;5034197;28;20051;-64
2022/08/16 04:52:37;;;;;;;8.07;6.22;;;;;;;23.66;56.71;96022.72;5034237;28;20045;-65
2022/08/16 04:55:06;;;;;;;7.95;7.15;;;;;;;23.90;56.17;96011.38;5034126;28;20440;-71
2022/08/16 04:57:33;;;;;;;8.00;7.15;;;;;;;24.12;55.57;96014.56;5034008;28;20045;-67
2022/08/16 05:00:01;;;;;;;11.10;7.53;;;;;;;24.38;55.41;96013.75;5034149;28;20046;-67
2022/08/16 05:02:28;;;;;;;8.43;7.18;;;;;;;24.69;55.38;96010.59;5034286;28;20095;-73
2022/08/16 05:04:55;;;;;;;8.23;7.40;;;;;;;25.01;54.19;96007.38;5033962;28;20052;-67
2022/08/16 05:07:24;;;;;;;8.43;6.70;;;;;;;25.33;52.98;96013.81;5033807;28;20045;-65
2022/08/16 05:09:51;;;;;;;7.95;7.25;;;;;;;25.59;53.18;96008.34;5033798;28;20133;-66
2022/08/16 05:12:18;;;;;;;8.90;6.97;;;;;;;25.91;53.41;96008.53;5033879;28;20407;-63
2022/08/16 05:14:45;;;;;;;10.45;6.80;;;;;;;26.29;53.17;96009.81;5033170;28;20042;-58
2022/08/16 05:17:13;;;;;;;9.75;6.85;;;;;;;26.70;52.07;96012.41;5033687;28;20053;-65
2022/08/16 05:19:40;;;;;;;8.38;6.72;;;;;;;26.96;51.19;96016.66;5033655;28;20134;-63
2022/08/16 05:22:07;;;;;;;9.40;7.18;;;;;;;27.34;50.70;96021.38;5033702;28;20100;-61
2022/08/16 05:24:36;;;;;;;7.57;6.45;;;;;;;27.69;50.24;96020.16;5033672;28;20084;-64
2022/08/16 05:27:04;;;;;;;7.57;6.72;;;;;;;28.03;48.95;96020.72;5033382;28;20045;-67
2022/08/16 05:29:31;;;;;;;7.97;6.68;;;;;;;28.28;48.07;96015.97;5033466;28;20495;-65
2022/08/16 05:31:58;;;;;;;9.27;6.80;;;;;;;28.55;48.03;96013.69;5033524;28;20041;-62
2022/08/16 05:34:25;;;;;;;9.68;6.82;;;;;;;28.80;46.17;95994.56;5033527;28;20068;-65
2022/08/16 05:36:56;;;;;;;8.40;7.40;;;;;;;28.99;45.87;96006.63;5033394;28;20079;-62
2022/08/16 05:39:23;;;;;;;8.82;6.63;;;;;;;29.25;47.19;96007.13;5033337;28;20578;-65
2022/08/16 05:41:53;;;;;;;7.13;6.47;;;;;;;29.54;46.78;96005.38;5033540;28;20049;-64
2022/08/16 05:44:22;;;;;;;8.82;6.43;;;;;;;29.77;46.64;95997.13;5033394;28;20557;-60
2022/08/16 05:46:49;;;;;;;10.48;6.82;;;;;;;30.04;46.12;95993.00;5033350;28;20046;-65
2022/08/16 05:49:17;;;;;;;7.95;7.22;;;;;;;30.25;45.13;95997.53;5033340;28;20450;-66
2022/08/16 05:51:46;;;;;;;8.40;7.25;;;;;;;30.52;44.08;95997.72;5033229;28;20111;-68
2022/08/16 05:54:16;;;;;;;7.65;6.75;;;;;;;30.79;44.43;96005.97;5033218;28;20457;-68
2022/08/16 05:56:45;;;;;;;7.50;6.80;;;;;;;31.01;43.41;96006.72;5033224;28;20487;-64
2022/08/16 05:59:17;;;;;;;9.48;7.53;;;;;;;31.03;41.21;96014.56;5033133;28;20049;-66
2022/08/16 06:01:44;;;;;;;8.00;7.30;;;;;;;31.04;40.31;96018.13;5033001;28;20053;-67
2022/08/16 06:04:14;;;;;;;8.07;6.95;;;;;;;30.81;40.33;96024.66;5033172;28;20128;-68
2022/08/16 06:06:42;;;;;;;8.27;7.47;;;;;;;31.09;40.24;96026.47;5032976;28;20049;-71
2022/08/16 06:09:09;;;;;;;7.93;7.15;;;;;;;31.41;40.11;96029.50;5033163;28;20048;-68
2022/08/16 06:11:37;;;;;;;9.30;7.22;;;;;;;31.65;38.20;96027.25;5032970;28;20132;-69
2022/08/16 06:14:05;;;;;;;7.53;6.82;;;;;;;31.83;39.58;96021.28;5032942;28;20128;-68
2022/08/16 06:16:34;;;;;;;12.15;6.97;;;;;;;32.06;39.44;96016.53;5032794;28;20054;-62
2022/08/16 06:19:01;;;;;;;7.65;6.80;;;;;;;32.32;38.91;96014.84;5033107;28;20396;-60
2022/08/16 06:21:28;;;;;;;10.40;7.10;;;;;;;32.56;37.99;96013.38;5032832;28;20053;-67
2022/08/16 06:23:56;;;;;;;7.80;6.47;;;;;;;32.81;37.29;96019.97;5032934;28;20464;-69
2022/08/16 06:26:23;;;;;;;8.80;7.30;;;;;;;33.09;35.88;96016.16;5034145;28;20148;-67
2022/08/16 06:28:50;;;;;;;9.18;6.90;;;;;;;33.30;36.08;96011.47;5036784;28;20045;-62
2022/08/16 06:31:18;;;;;;;7.57;6.88;;;;;;;33.40;35.44;96004.56;5036985;28;20053;-66
2022/08/16 06:33:47;;;;;;;7.95;6.60;;;;;;;33.44;35.02;96004.97;5036782;28;20480;-63
2022/08/16 06:36:15;;;;;;;7.88;6.97;;;;;;;33.49;33.68;96007.84;5036873;28;20498;-64
2022/08/16 06:38:43;;;;;;;8.82;6.70;;;;;;;33.18;33.47;95997.78;5036691;28;20132;-62
2022/08/16 06:41:11;;;;;;;9.10;6.15;;;;;;;32.49;33.11;95999.03;5036669;28;20148;-72
2022/08/16 06:43:40;;;;;;;7.97;7.28;;;;;;;32.60;35.28;95998.38;5036821;28;20041;-68
2022/08/16 06:46:09;;;;;;;10.27;6.60;;;;;;;32.98;35.96;95994.09;5036538;28;20495;-68
2022/08/16 06:48:39;;;;;;;8.50;7.18;;;;;;;33.29;34.35;95991.69;5036381;28;20380;-68
2022/08/16 06:51:08;;;;;;;6.80;6.18;;;;;;;33.59;33.74;95996.53;5036520;28;20458;-65
2022/08/16 06:53:35;;;;;;;7.47;6.30;;;;;;;33.91;33.19;95995.69;5036547;28;20041;-74
2022/08/16 06:56:05;;;;;;;6.78;6.15;;;;;;;34.11;32.15;95990.13;5036447;28;20045;-69
2022/08/16 06:58:32;;;;;;;;;;;;;;;34.25;32.28;95990.81;5036509;28;20041;-67
2022/08/16 07:00:59;;;;;;;9.95;6.70;;;;;;;34.39;31.84;95983.41;5036339;28;19921;-65
2022/08/16 07:03:28;;;;;;;7.50;6.80;;;;;;;34.57;31.18;95989.06;5036238;28;20080;-60
2022/08/16 07:05:56;;;;;;;7.00;6.40;;;;;;;34.38;32.01;95989.06;5036385;28;20084;-65
2022/08/16 07:08:26;;;;;;;9.00;6.40;;;;;;;34.49;32.37;95992.91;5036161;28;20045;-69
2022/08/16 07:10:53;;;;;;;6.80;6.30;;;;;;;34.51;31.84;95988.91;5036110;28;20136;-59
2022/08/16 07:13:21;;;;;;;8.73;7.03;;;;;;;34.60;30.10;95983.19;5036197;28;20145;-66
2022/08/16 07:15:48;;;;;;;9.25;6.97;;;;;;;34.68;30.38;95984.81;5035866;28;20543;-63
2022/08/16 07:18:16;;;;;;;7.03;6.30;;;;;;;34.92;30.04;95985.78;5036002;28;20053;-67
2022/08/16 07:20:44;;;;;;;7.60;6.82;;;;;;;34.98;29.87;95993.03;5035955;28;20077;-64
2022/08/16 07:23:11;;;;;;;7.60;6.25;;;;;;;35.11;29.87;95989.31;5035801;28;20049;-63
2022/08/16 07:25:39;;;;;;;6.57;5.97;;;;;;;35.25;29.34;95987.28;5035829;28;20058;-63
2022/08/16 07:28:06;;;;;;;7.20;6.28;;;;;;;35.27;29.44;95982.44;5035761;28;20049;-69
2022/08/16 07:30:35;;;;;;;7.22;6.50;;;;;;;35.12;28.81;95979.28;5035850;28;20053;-66
2022/08/16 07:33:03;;;;;;;7.53;6.00;;;;;;;35.04;28.65;95986.66;5035865;28;20076;-65
2022/08/16 07:35:30;;;;;;;7.55;6.18;;;;;;;34.88;28.31;95982.69;5035859;28;20466;-68
2022/08/16 07:37:58;;;;;;;7.25;6.55;;;;;;;34.77;29.62;95986.16;5035148;28;20144;-66
2022/08/16 07:40:25;;;;;;;6.13;5.53;;;;;;;34.97;30.12;95991.34;5035530;28;20133;-67
2022/08/16 07:42:54;;;;;;;7.28;6.60;;;;;;;35.24;29.63;95987.50;5035414;28;20056;-64
2022/08/16 07:45:21;;;;;;;7.65;6.28;;;;;;;35.02;29.57;95985.22;5035510;28;20050;-65
2022/08/16 07:47:49;;;;;;;6.85;5.90;;;;;;;35.25;28.79;95983.72;5035400;28;20422;-65
2022/08/16 07:50:16;;;;;;;7.80;6.25;;;;;;;35.39;28.31;95984.34;5035406;28;20060;-69
2022/08/16 07:52:44;;;;;;;6.60;6.00;;;;;;;35.62;27.36;95988.22;5035382;28;20406;-68
2022/08/16 07:55:13;;;;;;;7.03;6.32;;;;;;;35.45;25.84;95982.63;5035430;28;20128;-68
2022/08/16 07:57:41;;;;;;;6.97;6.38;;;;;;;35.27;27.11;95987.88;5035310;28;20503;-66
2022/08/16 08:00:12;;;;;;;8.27;6.47;;;;;;;35.24;28.93;95982.88;5035414;28;20045;-65
2022/08/16 08:02:39;;;;;;;10.40;6.10;;;;;;;35.06;26.61;95980.19;5035062;28;20505;-67
2022/08/16 08:05:08;;;;;;;9.95;6.38;;;;;;;34.65;29.63;95996.91;5035138;28;20088;-64
2022/08/16 08:07:36;;;;;;;6.90;6.20;;;;;;;34.72;28.64;95988.72;5034994;28;20539;-63
2022/08/16 08:10:05;;;;;;;8.02;6.30;;;;;;;34.75;29.58;95994.53;5035074;28;20053;-67
2022/08/16 08:12:33;;;;;;;6.95;6.05;;;;;;;34.81;27.01;95994.66;5034952;28;20128;-60
2022/08/16 08:15:01;;;;;;;7.97;6.28;;;;;;;34.96;28.16;95988.84;5034818;28;20103;-66
2022/08/16 08:17:30;;;;;;;7.07;6.07;;;;;;;35.44;27.15;95983.66;5034974;28;20096;-66
2022/08/16 08:19:58;;;;;;;10.93;6.38;;;;;;;35.65;27.15;95995.91;5034826;28;20053;-68
2022/08/16 08:22:25;;;;;;;7.13;6.03;;;;;;;35.74;26.08;95991.00;5035181;28;20104;-68
2022/08/16 08:24:55;;;;;;;6.43;5.85;;;;;;;35.70;26.55;95978.94;5034727;28;20053;-66
2022/08/16 08:27:22;;;;;;;7.55;5.88;;;;;;;35.91;24.34;95974.84;5034743;28;20045;-68
2022/08/16 08:29:49;;;;;;;6.80;5.53;;;;;;;36.11;25.99;95970.97;5034554;28;20046;-65
2022/08/16 08:32:20;;;;;;;6.85;5.90;;;;;;;35.74;26.60;95963.81;5034519;28;20107;-63
2022/08/16 08:34:48;;;;;;;7.70;6.30;;;;;;;35.49;27.23;95965.63;5034581;28;20069;-63
2022/08/16 08:37:15;;;;;;;6.95;6.25;;;;;;;35.37;27.44;95971.03;5034478;28;20056;-62
2022/08/16 08:39:43;;;;;;;6.30;5.70;;;;;;;35.67;26.44;95969.31;5034498;28;20049;-67
2022/08/16 08:42:10;;;;;;;8.30;5.85;;;;;;;35.87;26.46;95957.31;5034370;28;20136;-70
2022/08/16 08:44:37;;;;;;;11.63;5.93;;;;;;;36.04;25.65;95961.00;5034490;28;20376;-63
2022/08/16 08:47:06;;;;;;;10.07;6.20;;;;;;;36.11;26.11;95962.78;5034314;28;20045;-65
2022/08/16 08:49:34;;;;;;;7.13;4.95;;;;;;;36.22;25.54;95964.72;5033368;28;20380;-64
2022/08/16 08:52:04;;;;;;;7.85;6.15;;;;;;;36.46;24.88;95964.69;5034185;28;20549;-63
2022/08/16 08:54:31;;;;;;;6.57;5.97;;;;;;;36.77;25.23;95965.38;5034176;28;20057;-65
2022/08/16 08:56:59;;;;;;;6.57;5.97;;;;;;;36.88;23.50;95958.25;5034151;28;20279;-63
2022/08/16 08:59:26;;;;;;;7.22;6.13;;;;;;;36.76;23.83;95957.44;5034311;28;20049;-65
2022/08/16 09:01:54;;;;;;;6.82;6.13;;;;;;;36.31;23.40;95953.44;5034079;28;20068;-61
2022/08/16 09:04:21;;;;;;;6.53;5.93;;;;;;;35.84;24.04;95949.66;5034035;28;20080;-63
2022/08/16 09:06:48;;;;;;;7.00;6.30;;;;;;;35.62;24.96;95948.28;5033922;28;20053;-67
2022/08/16 09:09:17;;;;;;;6.05;5.40;;;;;;;35.44;26.06;95946.44;5033750;28;20458;-63
2022/08/16 09:11:44;;;;;;;6.97;5.90;;;;;;;35.34;25.41;95946.19;5033941;28;20045;-63
2022/08/16 09:14:12;;;;;;;6.55;5.95;;;;;;;35.40;25.45;95942.53;5033696;28;20045;-65
2022/08/16 09:16:39;;;;;;;10.23;6.07;;;;;;;35.61;26.01;95949.34;5033894;28;20049;-72
2022/08/16 09:19:06;;;;;;;7.10;6.40;;;;;;;35.72;26.48;95947.72;5033773;28;20045;-64
2022/08/16 09:21:33;;;;;;;6.15;5.65;;;;;;;35.99;26.07;95946.47;5033754;28;20065;-62
2022/08/16 09:24:01;;;;;;;6.10;5.60;;;;;;;35.76;25.23;95948.09;5033640;28;20053;-67
2022/08/16 09:26:30;;;;;;;7.72;6.18;;;;;;;34.93;25.40;95949.41;5033611;28;20049;-63
2022/08/16 09:28:57;;;;;;;8.13;6.20;;;;;;;34.40;26.98;95955.22;5033497;28;20049;-62
2022/08/16 09:31:24;;;;;;;7.25;6.05;;;;;;;34.23;26.98;95949.56;5033594;28;20052;-59
2022/08/16 09:33:52;;;;;;;8.98;6.07;;;;;;;34.03;26.94;95946.97;5033538;28;20099;-64
2022/08/16 09:36:20;;;;;;;7.25;6.55;;;;;;;33.78;27.27;95942.41;5033478;28;20041;-66
2022/08/16 09:38:47;;;;;;;6.07;5.47;;;;;;;33.62;27.95;95950.03;5033353;28;20107;-65
2022/08/16 09:41:15;;;;;;;6.90;5.90;;;;;;;33.28;28.95;95952.09;5033529;28;20124;-67
2022/08/16 09:43:44;;;;;;;6.63;5.97;;;;;;;33.09;29.07;95951.16;5033508;28;20402;-65
2022/08/16 09:46:11;;;;;;;7.43;5.72;;;;;;;32.97;30.46;95949.13;5033386;28;20056;-68
2022/08/16 09:48:40;;;;;;;10.23;6.57;;;;;;;32.68;29.95;95958.63;5033192;28;20095;-65
2022/08/16 09:51:08;;;;;;;8.48;6.97;;;;;;;32.46;30.36;95965.09;5033114;28;20052;-63
2022/08/16 09:53:36;;;;;;;7.68;6.90;;;;;;;32.37;31.88;95975.31;5033101;28;20053;-62
2022/08/16 09:56:05;;;;;;;11.02;6.70;;;;;;;32.25;34.92;95980.53;5033111;28;20076;-60
2022/08/16 09:58:32;;;;;;;17.40;7.35;;;;;;;31.92;39.87;95981.38;5033091;28;20049;-63
2022/08/16 10:01:01;;;;;;;8.10;6.53;;;;;;;31.33;41.03;95997.25;5033139;28;20115;-62
2022/08/16 10:03:29;;;;;;;10.98;7.82;;;;;;;30.49;41.63;95998.09;5033185;28;20077;-65
2022/08/16 10:05:58;;;;;;;11.75;7.68;;;;;;;29.61;44.33;95994.69;5033176;28;20526;-65
2022/08/16 10:08:25;;;;;;;19.88;8.60;;;;;;;29.30;47.49;95993.94;5033115;28;20050;-64
2022/08/16 10:13:38;;;;;;;31.58;10.50;;;;;;;27.66;54.88;95986.44;5032962;28;20076;-66
2022/08/16 10:16:07;;;;;;;16.80;10.25;;;;;;;27.27;56.95;95990.06;5032740;28;20057;-61
2022/08/16 10:18:34;;;;;;;20.13;9.80;;;;;;;27.09;59.82;95980.44;5032961;28;20045;-68
2022/08/16 10:21:02;;;;;;;14.68;10.23;;;;;;;26.93;61.46;95987.50;5032879;28;20050;-64
2022/08/16 10:23:29;;;;;;;18.63;11.45;;;;;;;26.40;61.91;95989.91;5032776;28;20046;-64
2022/08/16 10:25:56;;;;;;;14.43;11.18;;;;;;;25.94;62.90;95991.28;5032913;28;20479;-60
2022/08/16 10:28:25;;;;;;;21.73;10.77;;;;;;;25.60;66.07;95985.94;5032684;28;20507;-62
2022/08/16 10:30:53;;;;;;;26.25;11.57;;;;;;;25.25;68.71;95987.88;5033052;28;20054;-70
2022/08/16 10:33:22;;;;;;;21.92;12.15;;;;;;;25.05;70.92;95987.34;5032742;28;20045;-67
2022/08/16 10:35:49;;;;;;;19.65;11.40;;;;;;;25.17;71.71;95994.06;5032824;28;20041;-67
2022/08/16 10:38:16;;;;;;;12.75;10.82;;;;;;;25.33;70.71;95992.41;5032838;28;20534;-63
2022/08/16 10:40:44;;;;;;;12.80;10.98;;;;;;;25.40;70.45;95989.91;5032634;28;20050;-60
2022/08/16 10:43:11;;;;;;;13.18;11.80;;;;;;;25.38;68.94;95982.06;5032712;28;20049;-64
2022/08/16 10:45:39;;;;;;;12.23;11.00;;;;;;;25.45;72.10;95985.72;5032708;28;20478;-66
2022/08/16 10:48:08;;;;;;;10.88;9.38;;;;;;;25.55;68.25;95977.53;5032610;28;20053;-65
2022/08/16 10:50:38;;;;;;;12.07;9.13;;;;;;;25.53;68.56;95986.75;5032723;28;20049;-68
2022/08/16 10:53:06;;;;;;;12.52;10.18;;;;;;;25.61;69.26;95989.44;5032769;28;20384;-66
2022/08/16 10:55:35;;;;;;;13.23;9.50;;;;;;;25.77;68.71;95993.97;5032660;28;20132;-64
2022/08/16 10:58:04;;;;;;;12.55;9.90;;;;;;;25.92;69.93;95998.66;5032707;28;20053;-60
2022/08/16 11:00:34;;;;;;;12.10;9.98;;;;;;;26.06;69.71;96002.47;5032430;28;20076;-69
2022/08/16 11:03:02;;;;;;;;;;;;;;;26.22;69.11;96012.34;5032985;28;20099;-61
2022/08/16 11:05:32;;;;;;;11.07;9.38;;;;;;;26.37;70.67;96017.88;5032524;28;20370;-70
2022/08/16 11:08:02;;;;;;;13.45;9.10;;;;;;;26.36;67.49;96017.03;5032491;28;20502;-60
2022/08/16 11:10:33;;;;;;;15.02;10.40;;;;;;;26.52;69.67;96007.28;5032491;28;20416;-63
2022/08/16 11:13:01;;;;;;;13.23;9.40;;;;;;;26.72;69.32;95996.16;5034498;28;20042;-67
2022/08/16 11:15:28;;;;;;;10.52;9.55;;;;;;;26.79;71.58;95990.94;5035853;28;20049;-61
2022/08/16 11:17:56;;;;;;;9.82;8.88;;;;;;;26.80;68.42;95984.56;5035842;28;20380;-61
2022/08/16 11:20:23;;;;;;;12.45;11.20;;;;;;;27.05;71.51;95989.81;5036012;28;20103;-64
2022/08/16 11:22:51;;;;;;;9.48;8.52;;;;;;;27.34;65.69;95975.75;5036011;28;20103;-66
2022/08/16 11:25:22;;;;;;;9.23;8.32;;;;;;;27.61;57.58;95978.91;5035753;28;20541;-62
2022/08/16 11:27:49;;;;;;;10.65;8.60;;;;;;;27.87;60.28;95977.69;5035929;28;20041;-65
2022/08/16 11:30:17;;;;;;;8.90;8.05;;;;;;;28.19;60.60;95968.66;5035582;28;20052;-65
2022/08/16 11:32:44;;;;;;;8.05;7.30;;;;;;;28.43;54.52;95974.81;5035706;28;20095;-65
2022/08/16 11:35:14;;;;;;;8.85;7.65;;;;;;;28.74;57.65;95982.69;5035622;28;20099;-70
2022/08/16 11:37:44;;;;;;;9.10;8.20;;;;;;;28.99;60.43;95976.22;5035733;28;20046;-69